Time;durP1;ratioP1;P1;durP2;ratioP2;P2;SDS_P1;SDS_P2;PMS_P1;PMS_P2;Temp;Humidity;BMP_temperature;BMP_pressure;BME280_temperature;BME280_humidity;BME280_pressure;Samples;Min_cycle;Max_cycle;Signal;HPM_P1;HPM_P2
2023/03/15 00:01:20;;;;;;;;;;;23.80;89.20;;;;;;1749245;80;20445;-81
2023/03/15 00:03:53;;;;;;;;;;;23.80;89.20;;;;;;1751443;81;20190;-83
2023/03/15 00:06:22;;;;;;;;;;;23.90;89.20;;;;;;1759847;80;20190;-82
2023/03/15 00:08:52;;;;;;;;;;;23.90;88.70;;;;;;1759967;80;20178;-82
2023/03/15 00:11:22;;;;;;;;;;;23.90;87.40;;;;;;1749214;80;20598;-82
2023/03/15 00:13:51;;;;;;;;;;;24.00;86.70;;;;;;1763789;80;20465;-82
2023/03/15 00:16:26;;;;;;;;;;;24.00;86.80;;;;;;1790242;79;20210;-82
2023/03/15 00:18:54;;;;;;;;;;;24.10;87.30;;;;;;1753642;80;20207;-81
2023/03/15 00:21:24;;;;;;;;;;;24.20;87.10;;;;;;1736308;80;20293;-82
2023/03/15 00:23:54;;;;;;;;;;;24.20;86.60;;;;;;1797386;78;20505;-81
2023/03/15 00:26:24;;;;;;;;;;;24.20;85.60;;;;;;1793312;79;20509;-80
2023/03/15 00:28:54;;;;;;;;;;;24.30;84.20;;;;;;1811995;78;20272;-80
2023/03/15 00:31:25;;;;;;;;;;;24.30;83.20;;;;;;1810128;79;20121;-81
2023/03/15 00:33:55;;;;;;;;;;;24.30;81.30;;;;;;1802590;78;20208;-82
2023/03/15 00:36:25;;;;;;;;;;;24.40;80.80;;;;;;1804072;79;20212;-81
2023/03/15 00:38:55;;;;;;;;;;;24.40;80.80;;;;;;1794498;78;20635;-81
2023/03/15 00:41:25;;;;;;;;;;;24.50;80.60;;;;;;1787662;79;20501;-81
2023/03/15 00:44:03;;;;;;;;;;;24.50;81.20;;;;;;1780680;79;20313;-81
2023/03/15 00:46:33;;;;;;;;;;;24.60;80.00;;;;;;1785637;78;20189;-80
2023/03/15 00:49:04;;;;;;;;;;;24.70;79.70;;;;;;1814721;79;20219;-80
2023/03/15 00:51:36;;;;;;;;;;;24.80;79.40;;;;;;1809670;78;20174;-80
2023/03/15 00:54:05;;;;;;;;;;;24.80;79.10;;;;;;1817011;78;20593;-79
2023/03/15 00:56:40;;;;;;;;;;;24.90;78.70;;;;;;1806912;79;20216;-80
2023/03/15 00:59:10;;;;;;;;;;;25.00;78.70;;;;;;1772491;80;20310;-81
2023/03/15 01:01:43;;;;;;;;;;;25.00;78.40;;;;;;1782501;79;20269;-79
2023/03/15 01:04:11;;;;;;;;;;;25.00;78.10;;;;;;1786604;77;20174;-80
2023/03/15 01:06:41;;;;;;;;;;;25.10;77.80;;;;;;1803366;78;20176;-81
2023/03/15 01:09:32;;;;;;;;;;;25.10;77.40;;;;;;1810281;79;20192;-80
2023/03/15 01:12:03;;;;;;;;;;;25.20;77.90;;;;;;1791535;79;20211;-78
2023/03/15 01:14:35;;;;;;;;;;;25.20;77.90;;;;;;1808158;78;20209;-80
2023/03/15 01:17:04;;;;;;;;;;;25.30;77.70;;;;;;1790689;78;20210;-80
2023/03/15 01:19:34;;;;;;;;;;;25.30;77.10;;;;;;1770116;79;20191;-79
2023/03/15 01:22:04;;;;;;;;;;;25.30;78.00;;;;;;1781236;79;20476;-81
2023/03/15 01:24:34;;;;;;;;;;;25.40;76.90;;;;;;1779168;81;20179;-79
2023/03/15 01:27:04;;;;;;;;;;;25.50;76.90;;;;;;1774429;79;20234;-79
2023/03/15 01:29:34;;;;;;;;;;;25.50;76.50;;;;;;1784672;79;20288;-79
2023/03/15 01:32:04;;;;;;;;;;;25.50;75.10;;;;;;1805841;79;20181;-79
2023/03/15 01:34:34;;;;;;;;;;;25.60;74.80;;;;;;1806535;78;20258;-78
2023/03/15 01:37:05;;;;;;;;;;;25.60;74.60;;;;;;1769805;79;20278;-80
2023/03/15 01:39:35;;;;;;;;;;;25.60;75.10;;;;;;1766788;78;20190;-80
2023/03/15 01:45:03;;;;;;;;;;;25.70;75.10;;;;;;1739779;81;20185;-80
2023/03/15 01:47:34;;;;;;;;;;;25.70;74.90;;;;;;1780951;79;20190;-80
2023/03/15 01:50:06;;;;;;;;;;;25.80;75.00;;;;;;1778442;80;20135;-80
2023/03/15 01:52:37;;;;;;;;;;;25.90;75.00;;;;;;1776900;79;20584;-79
2023/03/15 01:55:09;;;;;;;;;;;26.00;74.90;;;;;;1792994;78;20181;-78
2023/03/15 01:57:40;;;;;;;;;;;26.10;74.50;;;;;;1759725;79;20294;-79
2023/03/15 02:00:11;;;;;;;;;;;26.10;74.40;;;;;;1732512;81;20217;-79
2023/03/15 02:02:45;;;;;;;;;;;26.20;74.40;;;;;;1797591;78;20449;-79
2023/03/15 02:05:15;;;;;;;;;;;26.30;74.30;;;;;;1800646;78;20396;-79
2023/03/15 02:07:53;;;;;;;;;;;26.30;73.90;;;;;;1793567;78;20223;-80
2023/03/15 02:10:27;;;;;;;;;;;26.40;73.60;;;;;;1799598;78;20241;-79
2023/03/15 02:12:58;;;;;;;;;;;26.50;73.60;;;;;;1799088;78;20222;-79
2023/03/15 02:15:28;;;;;;;;;;;26.60;73.10;;;;;;1764248;79;20138;-78
2023/03/15 02:17:58;;;;;;;;;;;26.70;72.90;;;;;;1781727;80;20214;-78
2023/03/15 02:20:50;;;;;;;;;;;26.80;72.70;;;;;;1785250;79;20248;-79
2023/03/15 02:26:35;;;;;;;;;;;27.00;72.20;;;;;;1773545;78;20199;-80
2023/03/15 02:29:06;;;;;;;;;;;27.10;71.90;;;;;;1714507;82;20213;-77
2023/03/15 02:31:37;;;;;;;;;;;27.20;71.60;;;;;;1773763;80;20128;-78
2023/03/15 02:34:08;;;;;;;;;;;27.30;71.20;;;;;;1769264;79;20201;-79
2023/03/15 02:36:38;;;;;;;;;;;27.40;71.40;;;;;;1764941;80;20221;-80
2023/03/15 02:39:16;;;;;;;;;;;27.50;71.10;;;;;;1748475;79;20202;-79
2023/03/15 02:41:47;;;;;;;;;;;27.50;70.70;;;;;;1763927;80;20135;-81
2023/03/15 02:44:19;;;;;;;;;;;27.60;68.50;;;;;;1778310;81;20170;-80
2023/03/15 02:46:50;;;;;;;;;;;27.80;67.60;;;;;;1773743;80;20270;-80
2023/03/15 02:49:21;;;;;;;;;;;27.90;67.30;;;;;;1778249;80;20194;-79
2023/03/15 02:51:55;;;;;;;;;;;28.00;66.60;;;;;;1696082;83;20260;-78
2023/03/15 02:54:26;;;;;;;;;;;28.10;66.80;;;;;;1728779;82;20140;-79
2023/03/15 02:56:56;;;;;;;;;;;28.10;67.50;;;;;;1732856;83;20229;-81
2023/03/15 02:59:27;;;;;;;;;;;28.30;67.70;;;;;;1731819;82;20187;-80
2023/03/15 03:01:57;;;;;;;;;;;28.40;67.60;;;;;;1730685;82;20294;-80
2023/03/15 03:04:27;;;;;;;;;;;28.40;65.00;;;;;;1714415;83;20198;-80
2023/03/15 03:06:57;;;;;;;;;;;28.50;65.80;;;;;;1727532;82;20198;-80
2023/03/15 03:09:27;;;;;;;;;;;28.60;66.50;;;;;;1704369;82;20278;-80
2023/03/15 03:11:57;;;;;;;;;;;28.70;66.30;;;;;;1774457;80;20206;-81
2023/03/15 03:14:27;;;;;;;;;;;28.80;65.80;;;;;;1777630;79;20280;-81
2023/03/15 03:16:57;;;;;;;;;;;29.00;65.00;;;;;;1774100;79;20175;-79
2023/03/15 03:19:28;;;;;;;;;;;29.20;66.30;;;;;;1778093;80;20136;-79
2023/03/15 03:21:58;;;;;;;;;;;29.30;66.20;;;;;;1756177;80;20200;-81
2023/03/15 03:24:28;;;;;;;;;;;29.40;65.70;;;;;;1747824;82;20133;-80
2023/03/15 03:26:58;;;;;;;;;;;29.40;64.40;;;;;;1748777;81;20246;-80
2023/03/15 03:29:28;;;;;;;;;;;29.50;64.80;;;;;;1748716;82;20173;-81
2023/03/15 03:31:59;;;;;;;;;;;29.70;64.10;;;;;;1749980;80;20193;-80
2023/03/15 03:34:30;;;;;;;;;;;29.80;64.80;;;;;;1753370;80;20172;-80
2023/03/15 03:37:00;;;;;;;;;;;29.80;63.70;;;;;;1758142;80;20230;-80
2023/03/15 03:39:29;;;;;;;;;;;29.90;63.80;;;;;;1778494;79;20167;-80
2023/03/15 03:41:59;;;;;;;;;;;30.00;62.80;;;;;;1777583;79;20179;-80
2023/03/15 03:44:33;;;;;;;;;;;30.10;61.70;;;;;;1772429;80;20265;-82
2023/03/15 03:47:03;;;;;;;;;;;30.10;63.00;;;;;;1733106;81;20231;-80
2023/03/15 03:49:33;;;;;;;;;;;30.20;61.00;;;;;;1778521;79;20355;-80
2023/03/15 03:52:03;;;;;;;;;;;30.20;61.20;;;;;;1775807;79;20364;-82
2023/03/15 03:54:33;;;;;;;;;;;30.40;60.50;;;;;;1769050;79;20218;-79
2023/03/15 03:57:04;;;;;;;;;;;30.40;61.90;;;;;;1780936;79;20193;-81
2023/03/15 03:59:34;;;;;;;;;;;30.50;61.20;;;;;;1784005;79;20135;-81
2023/03/15 04:02:04;;;;;;;;;;;30.50;61.90;;;;;;1773250;79;20229;-79
2023/03/15 04:04:34;;;;;;;;;;;30.60;61.70;;;;;;1758232;80;20490;-79
2023/03/15 04:07:04;;;;;;;;;;;30.70;59.70;;;;;;1777663;80;20187;-80
2023/03/15 04:09:36;;;;;;;;;;;30.70;62.30;;;;;;1779412;80;20198;-80
2023/03/15 04:12:06;;;;;;;;;;;30.80;60.90;;;;;;1779694;80;20626;-81
2023/03/15 04:14:36;;;;;;;;;;;30.90;58.10;;;;;;1749069;80;20201;-80
2023/03/15 04:17:07;;;;;;;;;;;31.00;62.30;;;;;;1757006;80;20233;-80
2023/03/15 04:19:37;;;;;;;;;;;31.00;59.90;;;;;;1807579;78;20231;-79
2023/03/15 04:22:09;;;;;;;;;;;31.10;58.50;;;;;;1816112;78;20513;-79
2023/03/15 04:24:38;;;;;;;;;;;31.20;58.40;;;;;;1818755;78;20262;-80
2023/03/15 04:27:08;;;;;;;;;;;31.20;59.40;;;;;;1809342;78;20195;-80
2023/03/15 04:29:38;;;;;;;;;;;31.30;58.50;;;;;;1808071;78;20202;-80
2023/03/15 04:32:09;;;;;;;;;;;31.40;58.00;;;;;;1806587;78;20182;-81
2023/03/15 04:34:39;;;;;;;;;;;31.50;59.80;;;;;;1802521;78;20182;-80
2023/03/15 04:37:09;;;;;;;;;;;31.50;58.10;;;;;;1813939;77;20258;-80
2023/03/15 04:39:41;;;;;;;;;;;31.60;57.00;;;;;;1809225;79;20176;-81
2023/03/15 04:42:12;;;;;;;;;;;31.60;57.20;;;;;;1812355;78;20423;-81
2023/03/15 04:44:42;;;;;;;;;;;31.70;56.00;;;;;;1804918;78;20175;-81
2023/03/15 04:47:12;;;;;;;;;;;31.70;57.40;;;;;;1810645;78;20309;-81
2023/03/15 04:49:45;;;;;;;;;;;31.70;56.40;;;;;;1810339;78;20136;-81
2023/03/15 04:52:15;;;;;;;;;;;31.80;57.10;;;;;;1794303;78;20187;-81
2023/03/15 04:54:45;;;;;;;;;;;31.70;57.50;;;;;;1795240;78;20250;-82
2023/03/15 04:57:14;;;;;;;;;;;31.70;58.20;;;;;;1793659;79;20177;-82
2023/03/15 04:59:44;;;;;;;;;;;31.80;57.00;;;;;;1807661;78;20211;-81
2023/03/15 05:02:14;;;;;;;;;;;31.90;55.60;;;;;;1803014;78;20231;-83
2023/03/15 05:04:44;;;;;;;;;;;31.90;54.90;;;;;;1803623;78;20363;-80
2023/03/15 05:07:14;;;;;;;;;;;31.90;55.60;;;;;;1803639;78;20237;-79
2023/03/15 05:09:45;;;;;;;;;;;31.90;55.80;;;;;;1812976;78;20187;-81
2023/03/15 05:12:15;;;;;;;;;;;31.90;56.00;;;;;;1791508;80;20166;-81
2023/03/15 05:14:45;;;;;;;;;;;31.90;53.50;;;;;;1822937;79;20203;-80
2023/03/15 05:17:15;;;;;;;;;;;31.90;55.30;;;;;;1820108;77;20196;-82
2023/03/15 05:19:45;;;;;;;;;;;32.00;54.90;;;;;;1791296;78;20206;-80
2023/03/15 05:22:15;;;;;;;;;;;32.00;54.50;;;;;;1791097;79;20248;-81
2023/03/15 05:24:45;;;;;;;;;;;32.00;55.30;;;;;;1797561;79;20235;-82
2023/03/15 05:27:15;;;;;;;;;;;32.10;51.40;;;;;;1791733;79;20314;-81
2023/03/15 05:29:45;;;;;;;;;;;32.10;51.80;;;;;;1800661;79;20215;-81
2023/03/15 05:32:15;;;;;;;;;;;32.10;53.00;;;;;;1808621;78;20184;-81
2023/03/15 05:34:45;;;;;;;;;;;32.10;52.60;;;;;;1804072;78;20660;-81
2023/03/15 05:37:15;;;;;;;;;;;32.10;50.90;;;;;;1797303;79;20282;-81
2023/03/15 05:39:45;;;;;;;;;;;32.10;54.00;;;;;;1755658;79;20206;-81
2023/03/15 05:42:20;;;;;;;;;;;32.20;54.90;;;;;;1761118;81;20239;-81
2023/03/15 05:44:46;;;;;;;;;;;32.20;54.40;;;;;;1760479;80;20233;-80
2023/03/15 05:47:16;;;;;;;;;;;32.20;54.80;;;;;;1762592;80;20348;-79
2023/03/15 05:49:46;;;;;;;;;;;32.30;54.90;;;;;;1730885;82;20297;-81
2023/03/15 05:52:16;;;;;;;;;;;32.30;53.70;;;;;;1758104;81;20538;-80
2023/03/15 05:54:46;;;;;;;;;;;32.30;53.20;;;;;;1757679;81;20288;-80
2023/03/15 05:57:16;;;;;;;;;;;32.30;53.50;;;;;;1762603;80;20311;-80
2023/03/15 05:59:46;;;;;;;;;;;32.40;53.30;;;;;;1752634;81;20236;-80
2023/03/15 06:02:16;;;;;;;;;;;32.40;54.80;;;;;;1763334;81;20280;-80
2023/03/15 06:04:46;;;;;;;;;;;32.30;53.70;;;;;;1762090;80;20467;-79
2023/03/15 06:07:16;;;;;;;;;;;32.30;53.30;;;;;;1754116;80;20706;-80
2023/03/15 06:09:46;;;;;;;;;;;32.30;54.00;;;;;;1756295;81;20179;-81
2023/03/15 06:12:16;;;;;;;;;;;32.40;52.40;;;;;;1760712;81;20269;-81
2023/03/15 06:14:46;;;;;;;;;;;32.30;52.10;;;;;;1765192;80;20202;-80
2023/03/15 06:17:16;;;;;;;;;;;32.40;54.30;;;;;;1768213;81;20187;-80
2023/03/15 06:19:46;;;;;;;;;;;32.50;51.20;;;;;;1758885;80;20225;-78
2023/03/15 06:22:19;;;;;;;;;;;32.50;51.60;;;;;;1722682;82;20120;-80
2023/03/15 06:24:47;;;;;;;;;;;32.50;53.20;;;;;;1804637;78;20227;-81
2023/03/15 06:27:20;;;;;;;;;;;32.50;52.70;;;;;;1783874;78;20167;-79
2023/03/15 06:29:49;;;;;;;;;;;32.50;53.70;;;;;;1774302;81;20202;-81
2023/03/15 06:32:19;;;;;;;;;;;32.60;49.40;;;;;;1747432;80;20513;-80
2023/03/15 06:34:49;;;;;;;;;;;32.60;51.30;;;;;;1801678;79;20192;-81
2023/03/15 06:37:20;;;;;;;;;;;32.70;50.30;;;;;;1760258;79;20194;-82
2023/03/15 06:39:52;;;;;;;;;;;32.70;51.10;;;;;;1778978;79;20777;-81
2023/03/15 06:42:26;;;;;;;;;;;32.70;51.50;;;;;;1767572;80;20245;-81
2023/03/15 06:44:56;;;;;;;;;;;32.70;51.80;;;;;;1720197;82;20226;-80
2023/03/15 06:47:26;;;;;;;;;;;32.60;52.70;;;;;;1792661;79;20296;-81
2023/03/15 06:49:56;;;;;;;;;;;32.70;49.80;;;;;;1806975;79;20214;-81
2023/03/15 06:52:25;;;;;;;;;;;32.70;52.00;;;;;;1777871;80;20256;-81
2023/03/15 06:54:55;;;;;;;;;;;32.70;51.70;;;;;;1757088;80;20187;-81
2023/03/15 06:57:25;;;;;;;;;;;32.70;53.90;;;;;;1747152;80;20204;-81
2023/03/15 06:59:55;;;;;;;;;;;32.60;52.60;;;;;;1716696;84;20219;-81
2023/03/15 07:02:25;;;;;;;;;;;32.60;49.10;;;;;;1802495;79;20220;-81
2023/03/15 07:04:58;;;;;;;;;;;32.60;51.20;;;;;;1804298;78;20340;-80
2023/03/15 07:07:28;;;;;;;;;;;32.60;49.80;;;;;;1802893;79;20234;-80
2023/03/15 07:09:58;;;;;;;;;;;32.60;50.20;;;;;;1792981;79;20550;-79
2023/03/15 07:12:28;;;;;;;;;;;32.60;50.80;;;;;;1788895;78;20267;-74
2023/03/15 07:14:58;;;;;;;;;;;32.60;50.70;;;;;;1787976;79;20571;-74
2023/03/15 07:17:28;;;;;;;;;;;32.60;50.10;;;;;;1788602;79;20251;-76
2023/03/15 07:19:59;;;;;;;;;;;32.60;49.90;;;;;;1803629;78;20262;-75
2023/03/15 07:22:29;;;;;;;;;;;32.60;51.90;;;;;;1815663;78;20330;-76
2023/03/15 07:24:59;;;;;;;;;;;32.50;48.20;;;;;;1821934;79;20227;-74
2023/03/15 07:27:29;;;;;;;;;;;32.40;48.10;;;;;;1818997;78;20274;-76
2023/03/15 07:29:59;;;;;;;;;;;32.30;49.90;;;;;;1760669;79;20558;-74
2023/03/15 07:32:30;;;;;;;;;;;32.30;50.40;;;;;;1818155;77;20346;-76
2023/03/15 07:35:00;;;;;;;;;;;32.40;49.50;;;;;;1822348;78;20176;-75
2023/03/15 07:37:30;;;;;;;;;;;32.40;49.60;;;;;;1820331;79;20241;-74
2023/03/15 07:40:08;;;;;;;;;;;32.40;48.60;;;;;;1822313;79;20184;-76
2023/03/15 07:42:32;;;;;;;;;;;32.40;47.90;;;;;;1798306;78;20244;-75
2023/03/15 07:45:01;;;;;;;;;;;32.50;50.50;;;;;;1794250;78;20294;-75
2023/03/15 07:47:32;;;;;;;;;;;32.50;49.30;;;;;;1813671;79;20225;-75
2023/03/15 07:50:06;;;;;;;;;;;32.50;50.40;;;;;;1823257;79;20237;-76
2023/03/15 07:52:33;;;;;;;;;;;32.50;48.60;;;;;;1798939;78;20200;-73
2023/03/15 07:55:07;;;;;;;;;;;32.50;49.60;;;;;;1795726;78;20281;-75
2023/03/15 07:57:36;;;;;;;;;;;32.50;49.30;;;;;;1788991;78;20194;-75
2023/03/15 08:00:06;;;;;;;;;;;32.50;50.40;;;;;;1804556;79;20188;-74
2023/03/15 08:02:41;;;;;;;;;;;32.40;50.40;;;;;;1813905;78;20247;-75
2023/03/15 08:05:08;;;;;;;;;;;32.40;49.90;;;;;;1794967;78;20245;-74
2023/03/15 08:07:38;;;;;;;;;;;32.40;50.20;;;;;;1773738;80;20263;-75
2023/03/15 08:10:09;;;;;;;;;;;32.40;49.40;;;;;;1823382;79;20196;-74
2023/03/15 08:12:39;;;;;;;;;;;32.40;50.10;;;;;;1766531;80;20218;-75
2023/03/15 08:15:10;;;;;;;;;;;32.40;49.80;;;;;;1779555;78;20209;-75
2023/03/15 08:17:41;;;;;;;;;;;32.30;49.70;;;;;;1783437;80;20237;-75
2023/03/15 08:20:13;;;;;;;;;;;32.30;50.30;;;;;;1789995;80;20201;-75
2023/03/15 08:22:46;;;;;;;;;;;32.30;51.40;;;;;;1774666;80;20173;-76
2023/03/15 08:25:17;;;;;;;;;;;32.30;51.30;;;;;;1811531;79;20195;-74
2023/03/15 08:27:47;;;;;;;;;;;32.40;49.60;;;;;;1824376;79;20642;-76
2023/03/15 08:30:18;;;;;;;;;;;32.40;49.60;;;;;;1824495;78;20597;-76
2023/03/15 08:32:50;;;;;;;;;;;32.40;50.00;;;;;;1804840;79;20250;-75
2023/03/15 08:35:21;;;;;;;;;;;32.40;51.50;;;;;;1790139;78;20212;-75
2023/03/15 08:37:51;;;;;;;;;;;32.40;48.90;;;;;;1785317;78;20186;-74
2023/03/15 08:40:24;;;;;;;;;;;32.40;50.50;;;;;;1783090;80;20211;-74
2023/03/15 08:42:55;;;;;;;;;;;32.40;51.50;;;;;;1783192;79;20202;-75
2023/03/15 08:45:25;;;;;;;;;;;32.40;48.90;;;;;;1794800;78;20366;-75
2023/03/15 08:47:55;;;;;;;;;;;32.30;49.60;;;;;;1790655;79;20299;-75
2023/03/15 08:50:26;;;;;;;;;;;32.40;47.90;;;;;;1791918;78;20212;-75
2023/03/15 08:52:56;;;;;;;;;;;32.40;48.70;;;;;;1819463;78;20234;-74
2023/03/15 08:55:25;;;;;;;;;;;32.40;49.40;;;;;;1794080;78;20205;-76
2023/03/15 08:57:55;;;;;;;;;;;32.40;47.80;;;;;;1796114;78;20721;-75
2023/03/15 09:00:25;;;;;;;;;;;32.40;49.00;;;;;;1786489;79;20689;-76
2023/03/15 09:02:55;;;;;;;;;;;32.40;48.90;;;;;;1792426;79;20447;-74
2023/03/15 09:05:26;;;;;;;;;;;32.40;49.70;;;;;;1783804;79;20258;-76
2023/03/15 09:07:55;;;;;;;;;;;32.40;49.90;;;;;;1787991;79;20226;-77
2023/03/15 09:10:25;;;;;;;;;;;32.40;50.60;;;;;;1781920;80;20198;-75
2023/03/15 09:12:56;;;;;;;;;;;32.30;50.00;;;;;;1796952;79;20188;-75
2023/03/15 09:15:26;;;;;;;;;;;32.30;50.50;;;;;;1813535;79;20175;-76
2023/03/15 09:17:56;;;;;;;;;;;32.30;50.80;;;;;;1809748;78;20207;-75
2023/03/15 09:20:27;;;;;;;;;;;32.20;51.40;;;;;;1791706;78;20526;-75
2023/03/15 09:22:57;;;;;;;;;;;32.20;51.20;;;;;;1757818;81;20246;-74
2023/03/15 09:25:27;;;;;;;;;;;32.10;51.50;;;;;;1774474;81;20139;-74
2023/03/15 09:27:57;;;;;;;;;;;32.10;51.80;;;;;;1719191;82;20225;-75
2023/03/15 09:30:27;;;;;;;;;;;32.10;52.20;;;;;;1736374;82;20265;-75
2023/03/15 09:32:57;;;;;;;;;;;32.00;52.00;;;;;;1736887;81;20270;-75
2023/03/15 09:35:28;;;;;;;;;;;32.00;52.30;;;;;;1726537;82;20195;-74
2023/03/15 09:37:58;;;;;;;;;;;32.00;53.00;;;;;;1773119;80;20314;-75
2023/03/15 09:40:29;;;;;;;;;;;32.00;52.20;;;;;;1762749;80;20429;-75
2023/03/15 09:43:03;;;;;;;;;;;32.00;52.50;;;;;;1793399;78;20231;-75
2023/03/15 09:45:35;;;;;;;;;;;31.90;53.10;;;;;;1802184;78;20238;-74
2023/03/15 09:48:10;;;;;;;;;;;31.90;51.80;;;;;;1798084;78;20203;-75
2023/03/15 09:50:48;;;;;;;;;;;31.90;52.40;;;;;;1791407;79;20242;-75
2023/03/15 09:53:30;;;;;;;;;;;31.90;53.00;;;;;;1791217;79;20225;-76
2023/03/15 09:56:00;;;;;;;;;;;31.90;53.30;;;;;;1791289;79;20178;-75
2023/03/15 09:58:34;;;;;;;;;;;31.80;53.10;;;;;;1793801;79;20225;-74
2023/03/15 10:01:24;;;;;;;;;;;31.80;53.60;;;;;;1751920;81;20189;-75
2023/03/15 10:03:55;;;;;;;;;;;31.80;53.50;;;;;;1756203;80;20298;-75
2023/03/15 10:06:26;;;;;;;;;;;31.80;53.20;;;;;;1755393;80;20204;-74
2023/03/15 10:08:57;;;;;;;;;;;31.70;51.80;;;;;;1776172;79;20145;-74
2023/03/15 10:11:31;;;;;;;;;;;31.70;52.20;;;;;;1765788;80;20494;-74
2023/03/15 10:14:08;;;;;;;;;;;31.70;52.10;;;;;;1769646;80;20277;-75
2023/03/15 10:16:45;;;;;;;;;;;31.70;53.80;;;;;;1753231;81;20268;-74
2023/03/15 10:19:33;;;;;;;;;;;31.70;53.50;;;;;;1763281;80;20258;-74
2023/03/15 10:22:10;;;;;;;;;;;31.60;53.90;;;;;;1751203;81;20220;-75
2023/03/15 10:24:44;;;;;;;;;;;31.60;53.00;;;;;;1745054;81;20283;-74
2023/03/15 10:27:15;;;;;;;;;;;31.50;53.90;;;;;;1745181;82;20222;-75
2023/03/15 10:29:45;;;;;;;;;;;31.60;53.20;;;;;;1745447;81;20208;-75
2023/03/15 10:32:20;;;;;;;;;;;31.50;53.40;;;;;;1743133;81;20177;-75
2023/03/15 10:34:51;;;;;;;;;;;31.50;53.20;;;;;;1732322;82;20252;-75
2023/03/15 10:37:22;;;;;;;;;;;31.50;52.70;;;;;;1752272;80;20180;-74
2023/03/15 10:39:53;;;;;;;;;;;31.40;52.90;;;;;;1752475;80;20189;-74
2023/03/15 10:42:24;;;;;;;;;;;31.40;53.60;;;;;;1746424;82;20177;-75
2023/03/15 10:44:54;;;;;;;;;;;31.40;53.50;;;;;;1744392;82;20242;-74
2023/03/15 10:47:24;;;;;;;;;;;31.40;54.00;;;;;;1748922;81;20273;-74
2023/03/15 10:49:58;;;;;;;;;;;31.40;54.00;;;;;;1747768;81;20328;-75
2023/03/15 10:52:35;;;;;;;;;;;31.30;54.00;;;;;;1674284;84;20371;-75
2023/03/15 10:55:06;;;;;;;;;;;31.30;53.90;;;;;;1745898;82;20264;-75
2023/03/15 10:57:38;;;;;;;;;;;31.20;53.70;;;;;;1744976;81;20522;-75
2023/03/15 11:00:16;;;;;;;;;;;31.20;53.80;;;;;;1753175;79;20241;-74
2023/03/15 11:02:42;;;;;;;;;;;31.20;54.30;;;;;;1779032;79;20177;-75
2023/03/15 11:05:13;;;;;;;;;;;31.10;54.80;;;;;;1758909;80;20186;-74
2023/03/15 11:07:49;;;;;;;;;;;31.10;55.10;;;;;;1731444;81;20532;-74
2023/03/15 11:10:22;;;;;;;;;;;31.10;55.20;;;;;;1751559;81;20272;-75
2023/03/15 11:12:50;;;;;;;;;;;31.00;55.40;;;;;;1755832;81;20315;-75
2023/03/15 11:15:19;;;;;;;;;;;31.00;55.60;;;;;;1753396;81;20831;-74
2023/03/15 11:17:49;;;;;;;;;;;30.90;55.70;;;;;;1752278;81;20603;-74
2023/03/15 11:20:28;;;;;;;;;;;30.90;55.90;;;;;;1755801;81;20187;-75
2023/03/15 11:22:58;;;;;;;;;;;30.90;56.00;;;;;;1759636;81;20341;-75
2023/03/15 11:25:30;;;;;;;;;;;30.80;56.10;;;;;;1753702;81;20276;-74
2023/03/15 11:28:00;;;;;;;;;;;30.80;56.20;;;;;;1757030;81;20258;-74
2023/03/15 11:30:30;;;;;;;;;;;30.80;56.30;;;;;;1752275;81;20237;-75
2023/03/15 11:33:01;;;;;;;;;;;30.80;56.50;;;;;;1753434;80;20267;-74
2023/03/15 11:35:32;;;;;;;;;;;30.70;56.50;;;;;;1754347;81;20188;-74
2023/03/15 11:38:04;;;;;;;;;;;30.70;56.70;;;;;;1753532;81;20185;-74
2023/03/15 11:40:36;;;;;;;;;;;30.70;56.80;;;;;;1751491;81;20186;-74
2023/03/15 11:43:10;;;;;;;;;;;30.60;56.80;;;;;;1731723;81;20300;-74
2023/03/15 11:45:44;;;;;;;;;;;30.60;56.80;;;;;;1755169;80;20546;-74
2023/03/15 11:48:22;;;;;;;;;;;30.60;57.00;;;;;;1760220;81;20202;-74
2023/03/15 11:50:54;;;;;;;;;;;30.60;57.00;;;;;;1747796;81;20225;-74
2023/03/15 11:53:25;;;;;;;;;;;30.60;57.10;;;;;;1740597;81;20229;-74
2023/03/15 11:55:57;;;;;;;;;;;30.50;57.20;;;;;;1754276;81;20193;-74
2023/03/15 11:58:30;;;;;;;;;;;30.60;57.20;;;;;;1759077;81;20280;-75
2023/03/15 12:01:05;;;;;;;;;;;30.50;57.20;;;;;;1753586;80;20237;-74
2023/03/15 12:03:36;;;;;;;;;;;30.50;57.30;;;;;;1753018;81;20215;-74
2023/03/15 12:06:08;;;;;;;;;;;30.50;57.50;;;;;;1732920;81;20259;-73
2023/03/15 12:08:53;;;;;;;;;;;30.50;57.50;;;;;;1753307;81;20205;-74
2023/03/15 12:11:23;;;;;;;;;;;30.40;57.40;;;;;;1748641;80;20173;-74
2023/03/15 12:13:54;;;;;;;;;;;30.40;57.60;;;;;;1729778;81;20280;-74
2023/03/15 12:16:36;;;;;;;;;;;30.40;57.70;;;;;;1763809;80;20411;-74
2023/03/15 12:19:04;;;;;;;;;;;30.40;58.40;;;;;;1760550;80;20353;-75
2023/03/15 12:21:35;;;;;;;;;;;30.30;57.60;;;;;;1754028;80;20284;-74
2023/03/15 12:24:07;;;;;;;;;;;30.30;57.80;;;;;;1755802;80;20245;-75
2023/03/15 12:26:44;;;;;;;;;;;30.30;57.80;;;;;;1747786;80;20610;-75
2023/03/15 12:29:21;;;;;;;;;;;30.30;58.10;;;;;;1753056;80;20182;-82
2023/03/15 12:31:52;;;;;;;;;;;30.30;58.50;;;;;;1759312;80;20189;-82
2023/03/15 12:34:23;;;;;;;;;;;30.20;58.50;;;;;;1755084;81;20216;-82
2023/03/15 12:37:10;;;;;;;;;;;;;;;;;;;;;
2023/03/15 12:39:42;;;;;;;;;;;30.20;59.10;;;;;;1769363;80;20245;-82
2023/03/15 12:42:12;;;;;;;;;;;30.20;59.00;;;;;;1775816;80;20528;-83
2023/03/15 12:44:43;;;;;;;;;;;30.10;59.00;;;;;;1765405;80;20173;-82
2023/03/15 12:47:14;;;;;;;;;;;30.10;59.10;;;;;;1751269;80;20244;-82
2023/03/15 12:49:45;;;;;;;;;;;30.10;59.80;;;;;;1755776;81;20276;-82
2023/03/15 12:52:30;;;;;;;;;;;30.10;59.90;;;;;;1747576;80;20204;-82
2023/03/15 12:55:07;;;;;;;;;;;30.00;59.40;;;;;;1750252;80;20226;-81
2023/03/15 12:57:39;;;;;;;;;;;30.00;59.60;;;;;;1746957;81;20261;-82
2023/03/15 13:00:14;;;;;;;;;;;30.10;59.40;;;;;;1747444;81;20197;-81
2023/03/15 13:02:45;;;;;;;;;;;30.00;59.20;;;;;;1755632;81;20172;-81
2023/03/15 13:05:19;;;;;;;;;;;30.00;59.40;;;;;;1745813;82;20193;-82
2023/03/15 13:08:07;;;;;;;;;;;30.00;59.40;;;;;;1727095;83;20175;-82
2023/03/15 13:10:42;;;;;;;;;;;30.00;59.40;;;;;;1732549;82;20232;-80
2023/03/15 13:13:29;;;;;;;;;;;30.00;59.60;;;;;;1769767;80;20198;-82
2023/03/15 13:16:13;;;;;;;;;;;29.90;59.70;;;;;;1744480;81;20182;-82
2023/03/15 13:18:45;;;;;;;;;;;29.90;59.80;;;;;;1747489;81;20230;-81
2023/03/15 13:21:19;;;;;;;;;;;29.90;60.80;;;;;;1742866;82;20227;-83
2023/03/15 13:23:50;;;;;;;;;;;29.90;60.00;;;;;;1752225;82;20573;-81
2023/03/15 13:26:22;;;;;;;;;;;29.80;59.60;;;;;;1733857;82;20200;-81
2023/03/15 13:29:14;;;;;;;;;;;29.80;59.90;;;;;;1731248;81;20136;-81
2023/03/15 13:31:43;;;;;;;;;;;29.80;59.90;;;;;;1739327;80;20175;-82
2023/03/15 13:34:14;;;;;;;;;;;29.80;60.00;;;;;;1763205;81;20164;-81
2023/03/15 13:36:45;;;;;;;;;;;29.70;60.20;;;;;;1753814;81;20384;-82
2023/03/15 13:39:16;;;;;;;;;;;29.70;60.20;;;;;;1754692;80;20208;-82
2023/03/15 13:41:46;;;;;;;;;;;29.70;60.20;;;;;;1773497;80;20312;-82
2023/03/15 13:44:20;;;;;;;;;;;29.70;60.50;;;;;;1762871;80;20568;-82
2023/03/15 13:46:50;;;;;;;;;;;29.70;60.40;;;;;;1763290;80;20204;-81
2023/03/15 13:49:26;;;;;;;;;;;29.70;60.70;;;;;;1758347;81;20188;-81
2023/03/15 13:52:00;;;;;;;;;;;29.70;60.70;;;;;;1756063;81;20121;-79
2023/03/15 13:54:45;;;;;;;;;;;29.60;60.90;;;;;;1754549;82;20106;-80
2023/03/15 13:57:18;;;;;;;;;;;29.60;60.90;;;;;;1749280;81;20269;-81
2023/03/15 13:59:49;;;;;;;;;;;29.60;61.30;;;;;;1753496;81;20158;-79
2023/03/15 14:02:26;;;;;;;;;;;29.60;61.50;;;;;;1716432;83;20212;-81
2023/03/15 14:05:00;;;;;;;;;;;29.50;61.70;;;;;;1710764;83;20242;-81
2023/03/15 14:07:47;;;;;;;;;;;29.50;61.60;;;;;;1726354;83;20454;-82
2023/03/15 14:10:27;;;;;;;;;;;29.50;62.00;;;;;;1727003;81;20212;-81
2023/03/15 14:12:57;;;;;;;;;;;29.50;62.10;;;;;;1732653;82;20200;-80
2023/03/15 14:15:31;;;;;;;;;;;29.50;62.40;;;;;;1732193;81;20168;-82
2023/03/15 14:18:02;;;;;;;;;;;29.40;61.90;;;;;;1734188;82;20138;-83
2023/03/15 14:20:34;;;;;;;;;;;29.40;61.80;;;;;;1731960;81;20890;-83
2023/03/15 14:23:08;;;;;;;;;;;29.40;62.00;;;;;;1728250;81;20240;-82
2023/03/15 14:25:45;;;;;;;;;;;29.40;61.70;;;;;;1737355;81;20474;-82
2023/03/15 14:28:15;;;;;;;;;;;29.40;62.80;;;;;;1732394;81;20316;-82
2023/03/15 14:30:47;;;;;;;;;;;29.30;62.20;;;;;;1748922;81;20221;-82
2023/03/15 14:33:24;;;;;;;;;;;29.30;61.90;;;;;;1743442;80;20216;-81
2023/03/15 14:35:54;;;;;;;;;;;29.30;62.50;;;;;;1740823;81;20196;-82
2023/03/15 14:38:25;;;;;;;;;;;29.30;62.80;;;;;;1748501;81;20184;-82
2023/03/15 14:40:56;;;;;;;;;;;29.30;62.90;;;;;;1732674;81;20491;-82
2023/03/15 14:43:25;;;;;;;;;;;29.20;62.80;;;;;;1730996;82;20199;-82
2023/03/15 14:45:55;;;;;;;;;;;29.20;62.90;;;;;;1740059;81;20173;-81
2023/03/15 14:48:30;;;;;;;;;;;29.20;62.90;;;;;;1748092;82;20173;-80
2023/03/15 14:51:11;;;;;;;;;;;29.10;64.00;;;;;;1733134;81;20214;-81